createdAt,value
2018-05-21T00:01:03.604Z,17.50
2018-05-21T00:03:31.205Z,17.50
2018-05-21T00:05:58.759Z,17.50
2018-05-21T00:08:26.262Z,17.50
2018-05-21T00:10:53.799Z,17.40
2018-05-21T00:13:21.337Z,17.40
2018-05-21T00:15:48.862Z,17.30
2018-05-21T00:18:16.432Z,17.40
2018-05-21T00:20:43.993Z,17.40
2018-05-21T00:23:11.548Z,17.30
2018-05-21T00:25:39.100Z,17.30
2018-05-21T00:28:06.644Z,17.30
2018-05-21T00:30:34.216Z,17.20
2018-05-21T00:33:01.780Z,17.20
2018-05-21T00:35:29.349Z,17.20
2018-05-21T00:37:57.654Z,17.20
2018-05-21T00:40:26.010Z,17.10
2018-05-21T00:42:53.596Z,17.10
2018-05-21T00:45:21.168Z,17.00
2018-05-21T00:47:48.752Z,16.90
2018-05-21T00:50:16.319Z,16.80
2018-05-21T00:52:43.862Z,16.80
2018-05-21T00:55:23.150Z,16.90
2018-05-21T00:57:50.744Z,16.80
2018-05-21T01:00:18.323Z,16.90
2018-05-21T01:02:45.896Z,16.80
2018-05-21T01:05:13.454Z,16.70
2018-05-21T01:07:41.010Z,16.80
2018-05-21T01:10:08.717Z,16.70
2018-05-21T01:12:36.261Z,16.70
2018-05-21T01:15:03.796Z,16.60
2018-05-21T01:17:31.318Z,16.60
2018-05-21T01:19:59.584Z,16.60
2018-05-21T01:22:27.895Z,16.60
2018-05-21T01:24:55.438Z,16.60
2018-05-21T01:27:22.967Z,16.60
2018-05-21T01:29:50.541Z,16.60
2018-05-21T01:32:18.042Z,16.50
2018-05-21T01:34:45.631Z,16.60
2018-05-21T01:37:13.214Z,16.60
2018-05-21T01:39:40.783Z,16.50
2018-05-21T01:42:09.155Z,16.50
2018-05-21T01:44:37.529Z,16.40
2018-05-21T01:47:05.109Z,16.30
2018-05-21T01:49:33.541Z,16.20
2018-05-21T01:52:01.854Z,16.00
2018-05-21T01:54:29.404Z,16.00
2018-05-21T01:56:56.956Z,15.90
2018-05-21T01:59:24.456Z,15.80
2018-05-21T02:01:52.057Z,15.70
2018-05-21T02:04:19.580Z,15.70
2018-05-21T02:06:47.234Z,15.70
2018-05-21T02:09:14.757Z,15.80
2018-05-21T02:11:42.292Z,15.80
2018-05-21T02:14:09.800Z,15.70
2018-05-21T02:16:38.096Z,15.80
2018-05-21T02:19:06.457Z,15.90
2018-05-21T02:21:33.990Z,15.90
2018-05-21T02:24:01.587Z,16.00
2018-05-21T02:26:29.154Z,16.00
2018-05-21T02:28:56.709Z,16.00
2018-05-21T02:31:24.377Z,15.90
2018-05-21T02:33:51.945Z,16.00
2018-05-21T02:36:19.489Z,16.00
2018-05-21T02:38:47.050Z,16.10
2018-05-21T02:41:15.327Z,15.90
2018-05-21T02:43:43.648Z,15.70
2018-05-21T02:46:11.266Z,15.70
2018-05-21T02:48:39.536Z,15.90
2018-05-21T02:51:07.942Z,15.90
2018-05-21T02:53:35.453Z,15.90
2018-05-21T02:56:02.998Z,15.70
2018-05-21T02:58:30.577Z,15.60
2018-05-21T03:00:58.228Z,15.60
2018-05-21T03:03:25.764Z,15.60
2018-05-21T03:05:53.378Z,15.60
2018-05-21T03:08:21.679Z,15.70
2018-05-21T03:10:49.262Z,15.70
2018-05-21T03:13:16.800Z,15.80
2018-05-21T03:15:44.376Z,15.70
2018-05-21T03:18:11.983Z,15.80
2018-05-21T03:20:39.544Z,15.60
2018-05-21T03:23:07.117Z,15.60
2018-05-21T03:25:34.742Z,15.70
2018-05-21T03:28:02.342Z,15.70
2018-05-21T03:30:30.769Z,15.90
2018-05-21T03:32:58.306Z,15.80
2018-05-21T03:35:25.861Z,15.90
2018-05-21T03:37:53.401Z,15.90
2018-05-21T03:40:21.712Z,15.70
2018-05-21T03:42:49.268Z,15.70
2018-05-21T03:45:16.860Z,15.80
2018-05-21T03:47:44.433Z,15.80
2018-05-21T03:50:12.038Z,15.80
2018-05-21T03:52:40.353Z,15.90
2018-05-21T03:55:07.852Z,15.80
2018-05-21T03:57:36.187Z,15.70
2018-05-21T04:00:15.558Z,15.70
2018-05-21T04:02:54.954Z,15.70
2018-05-21T04:05:22.557Z,15.60
2018-05-21T04:07:50.082Z,15.50
2018-05-21T04:10:17.597Z,15.60
2018-05-21T04:12:45.916Z,15.70
2018-05-21T04:15:13.464Z,15.70
2018-05-21T04:17:40.990Z,15.70
2018-05-21T04:20:09.354Z,15.60
2018-05-21T04:22:36.928Z,15.60
2018-05-21T04:25:04.436Z,15.60
2018-05-21T04:27:31.969Z,15.50
2018-05-21T04:29:59.564Z,15.40
2018-05-21T04:32:27.129Z,15.40
2018-05-21T04:34:54.714Z,15.40
2018-05-21T04:37:22.233Z,15.40
2018-05-21T04:39:49.793Z,15.40
2018-05-21T04:42:17.337Z,15.50
2018-05-21T04:44:44.876Z,15.80
2018-05-21T04:47:13.174Z,15.80
2018-05-21T04:49:41.450Z,15.70
2018-05-21T04:52:09.038Z,15.70
2018-05-21T04:54:36.576Z,15.70
2018-05-21T04:57:04.099Z,15.90
2018-05-21T04:59:31.628Z,16.30
2018-05-21T05:01:59.917Z,16.50
2018-05-21T05:04:27.524Z,16.50
2018-05-21T05:06:55.092Z,16.50
2018-05-21T05:09:22.651Z,16.30
2018-05-21T05:11:50.238Z,16.20
2018-05-21T05:14:17.779Z,16.20
2018-05-21T05:16:45.332Z,16.20
2018-05-21T05:19:12.857Z,16.10
2018-05-21T05:21:40.378Z,16.20
2018-05-21T05:24:07.911Z,16.30
2018-05-21T05:26:35.492Z,16.50
2018-05-21T05:29:03.018Z,16.40
2018-05-21T05:31:31.326Z,16.30
2018-05-21T05:33:58.850Z,16.30
2018-05-21T05:36:26.381Z,16.30
2018-05-21T05:38:54.025Z,16.30
2018-05-21T05:41:21.594Z,16.30
2018-05-21T05:43:49.208Z,16.40
2018-05-21T05:46:16.772Z,16.50
2018-05-21T05:48:44.458Z,16.50
2018-05-21T05:51:11.988Z,16.50
2018-05-21T05:53:40.341Z,16.70
2018-05-21T05:56:07.886Z,16.70
2018-05-21T05:58:35.474Z,16.90
2018-05-21T06:01:03.037Z,17.10
2018-05-21T06:03:31.348Z,17.10
2018-05-21T06:05:58.870Z,17.10
2018-05-21T06:08:27.194Z,16.70
2018-05-21T06:10:54.786Z,16.70
2018-05-21T06:13:23.145Z,16.70
2018-05-21T06:15:50.689Z,16.70
2018-05-21T06:18:18.248Z,16.90
2018-05-21T06:20:45.819Z,17.00
2018-05-21T06:23:13.361Z,17.10
2018-05-21T06:25:40.942Z,17.10
2018-05-21T06:28:08.483Z,17.20
2018-05-21T06:30:36.023Z,17.20
2018-05-21T06:33:04.350Z,17.20
2018-05-21T06:35:31.857Z,17.20
2018-05-21T06:37:59.391Z,17.20
2018-05-21T06:40:27.002Z,17.40
2018-05-21T06:42:54.941Z,17.40
2018-05-21T06:45:23.232Z,17.60
2018-05-21T06:47:50.786Z,17.60
2018-05-21T06:50:18.300Z,17.60
2018-05-21T06:52:46.584Z,17.70
2018-05-21T06:55:14.305Z,17.70
2018-05-21T06:57:41.864Z,17.90
2018-05-21T07:00:09.422Z,17.80
2018-05-21T07:02:36.972Z,17.80
2018-05-21T07:05:05.319Z,18.10
2018-05-21T07:07:32.857Z,18.00
2018-05-21T07:10:00.399Z,18.20
2018-05-21T07:12:27.899Z,18.40
2018-05-21T07:14:55.427Z,18.30
2018-05-21T07:17:22.921Z,18.30
2018-05-21T07:19:50.446Z,18.40
2018-05-21T07:22:17.996Z,18.50
2018-05-21T07:24:45.541Z,18.50
2018-05-21T07:27:13.146Z,18.50
2018-05-21T07:29:40.667Z,18.50
2018-05-21T07:32:08.187Z,18.60
2018-05-21T07:34:35.713Z,18.80
2018-05-21T07:37:03.253Z,19.00
2018-05-21T07:39:30.825Z,19.10
2018-05-21T07:41:58.349Z,19.10
2018-05-21T07:44:26.028Z,19.20
2018-05-21T07:46:53.839Z,19.30
2018-05-21T07:49:21.405Z,19.20
2018-05-21T07:51:48.976Z,19.30
2018-05-21T07:54:16.636Z,19.40
2018-05-21T07:56:44.153Z,19.60
2018-05-21T07:59:11.714Z,19.70
2018-05-21T08:01:39.294Z,19.90
2018-05-21T08:04:06.824Z,20.00
2018-05-21T08:06:34.394Z,20.10
2018-05-21T08:09:02.005Z,20.10
2018-05-21T08:11:29.564Z,20.10
2018-05-21T08:13:57.987Z,20.40
2018-05-21T08:16:25.575Z,20.30
2018-05-21T08:18:53.113Z,20.40
2018-05-21T08:21:20.659Z,20.50
2018-05-21T08:23:48.205Z,20.50
2018-05-21T08:26:15.731Z,20.50
2018-05-21T08:28:43.278Z,20.60
2018-05-21T08:31:10.774Z,20.60
2018-05-21T08:33:38.427Z,20.60
2018-05-21T08:36:05.997Z,20.70
2018-05-21T08:38:34.348Z,20.90
2018-05-21T08:41:01.885Z,20.80
2018-05-21T08:43:29.473Z,20.80
2018-05-21T08:45:57.049Z,21.00
2018-05-21T08:48:24.747Z,21.00
2018-05-21T08:50:53.098Z,21.10
2018-05-21T08:53:22.070Z,21.10
2018-05-21T08:55:49.661Z,21.00
2018-05-21T08:58:18.010Z,21.30
2018-05-21T09:00:45.521Z,21.30
2018-05-21T09:03:13.078Z,21.40
2018-05-21T09:05:40.741Z,21.40
2018-05-21T09:08:08.313Z,21.40
2018-05-21T09:10:35.848Z,21.60
2018-05-21T09:13:03.434Z,21.70
2018-05-21T09:15:30.981Z,21.80
2018-05-21T09:17:58.517Z,21.70
2018-05-21T09:20:26.817Z,21.70
2018-05-21T09:22:54.346Z,21.70
2018-05-21T09:25:21.895Z,21.80
2018-05-21T09:27:49.510Z,22.00
2018-05-21T09:30:17.061Z,22.00
2018-05-21T09:32:44.604Z,22.10
2018-05-21T09:35:12.142Z,22.10
2018-05-21T09:37:40.438Z,22.10
2018-05-21T09:40:08.765Z,22.40
2018-05-21T09:42:36.324Z,22.30
2018-05-21T09:45:04.672Z,22.90
2018-05-21T09:47:32.198Z,22.80
2018-05-21T09:50:00.494Z,22.80
2018-05-21T09:52:28.678Z,22.90
2018-05-21T09:54:56.265Z,23.20
2018-05-21T09:57:23.766Z,23.40
2018-05-21T09:59:52.081Z,23.50
2018-05-21T10:02:19.643Z,23.50
2018-05-21T10:04:47.204Z,23.90
2018-05-21T10:07:14.750Z,24.00
2018-05-21T10:09:42.272Z,23.80
2018-05-21T10:12:09.840Z,24.00
2018-05-21T10:14:37.332Z,24.10
2018-05-21T10:17:04.872Z,24.20
2018-05-21T10:19:33.213Z,24.40
2018-05-21T10:22:00.780Z,24.40
2018-05-21T10:24:29.137Z,24.40
2018-05-21T10:26:56.665Z,24.50
2018-05-21T10:29:24.241Z,24.60
2018-05-21T10:31:51.768Z,24.60
2018-05-21T10:34:20.085Z,24.70
2018-05-21T10:36:47.625Z,24.70
2018-05-21T10:39:15.178Z,25.90
2018-05-21T10:41:42.740Z,28.20
2018-05-21T10:44:10.278Z,30.30
2018-05-21T10:46:37.861Z,31.20
2018-05-21T10:49:05.378Z,32.50
2018-05-21T10:51:32.904Z,33.10
2018-05-21T10:54:00.421Z,32.90
2018-05-21T10:56:28.729Z,33.60
2018-05-21T10:58:56.266Z,33.60
2018-05-21T11:01:23.862Z,34.30
2018-05-21T11:03:51.409Z,35.30
2018-05-21T11:06:18.979Z,35.90
2018-05-21T11:08:46.501Z,36.50
2018-05-21T11:11:14.023Z,35.20
2018-05-21T11:13:41.583Z,34.60
2018-05-21T11:16:09.117Z,35.30
2018-05-21T11:18:36.655Z,35.00
2018-05-21T11:21:04.984Z,31.90
2018-05-21T11:23:32.536Z,31.80
2018-05-21T11:26:00.102Z,31.30
2018-05-21T11:28:27.620Z,32.20
2018-05-21T11:30:55.197Z,33.50
2018-05-21T11:33:22.837Z,33.50
2018-05-21T11:35:51.112Z,33.30
2018-05-21T11:38:19.393Z,33.80
2018-05-21T11:40:47.722Z,34.20
2018-05-21T11:43:15.285Z,34.20
2018-05-21T11:45:42.844Z,33.90
2018-05-21T11:48:10.424Z,35.40
2018-05-21T11:50:38.053Z,36.80
2018-05-21T11:53:05.490Z,38.20
2018-05-21T11:55:33.008Z,37.20
2018-05-21T11:58:00.550Z,36.40
2018-05-21T12:00:28.107Z,36.20
2018-05-21T12:02:55.630Z,36.20
2018-05-21T12:05:23.177Z,35.60
2018-05-21T12:07:50.718Z,35.10
2018-05-21T12:10:18.269Z,34.90
2018-05-21T12:12:45.822Z,34.40
2018-05-21T12:15:14.150Z,33.10
2018-05-21T12:17:41.711Z,33.00
2018-05-21T12:20:09.261Z,33.10
2018-05-21T12:22:36.800Z,33.00
2018-05-21T12:25:04.410Z,33.00
2018-05-21T12:27:31.967Z,32.70
2018-05-21T12:29:59.483Z,32.80
2018-05-21T12:32:27.783Z,33.20
2018-05-21T12:34:55.396Z,33.20
2018-05-21T12:37:22.958Z,32.60
2018-05-21T12:39:50.525Z,32.60
2018-05-21T12:42:18.828Z,32.00
2018-05-21T12:44:46.368Z,31.90
2018-05-21T12:47:13.924Z,31.80
2018-05-21T12:49:41.464Z,31.40
2018-05-21T12:52:08.986Z,31.30
2018-05-21T12:54:36.572Z,31.00
2018-05-21T12:57:04.849Z,30.10
2018-05-21T12:59:32.363Z,30.10
2018-05-21T13:01:59.945Z,29.90
2018-05-21T13:04:27.531Z,29.50
2018-05-21T13:06:55.062Z,29.30
2018-05-21T13:09:22.579Z,28.90
2018-05-21T13:11:50.119Z,28.70
2018-05-21T13:14:17.705Z,28.40
2018-05-21T13:16:45.990Z,28.00
2018-05-21T13:19:13.553Z,28.00
2018-05-21T13:21:41.840Z,27.60
2018-05-21T13:24:10.155Z,27.70
2018-05-21T13:26:37.705Z,27.70
2018-05-21T13:29:05.251Z,27.90
2018-05-21T13:31:32.786Z,27.60
2018-05-21T13:34:00.295Z,27.90
2018-05-21T13:36:27.863Z,28.20
2018-05-21T13:38:55.370Z,28.10
2018-05-21T13:41:22.897Z,27.80
2018-05-21T13:43:50.409Z,27.50
2018-05-21T13:46:18.005Z,27.60
2018-05-21T13:48:45.503Z,27.70
2018-05-21T13:51:13.806Z,27.60
2018-05-21T13:53:41.328Z,27.50
2018-05-21T13:56:08.911Z,27.40
2018-05-21T13:58:37.386Z,27.60
2018-05-21T14:01:04.898Z,27.60
2018-05-21T14:03:32.450Z,27.10
2018-05-21T14:05:59.958Z,27.30
2018-05-21T14:08:28.305Z,27.20
2018-05-21T14:10:55.814Z,27.10
2018-05-21T14:13:23.496Z,27.10
2018-05-21T14:15:51.371Z,27.00
2018-05-21T14:18:18.909Z,27.10
2018-05-21T14:20:46.432Z,27.10
2018-05-21T14:23:14.078Z,26.70
2018-05-21T14:25:41.734Z,26.60
2018-05-21T14:28:09.272Z,26.50
2018-05-21T14:30:36.781Z,26.50
2018-05-21T14:33:04.390Z,26.70
2018-05-21T14:35:31.871Z,26.70
2018-05-21T14:37:59.378Z,26.90
2018-05-21T14:40:27.736Z,26.60
2018-05-21T14:42:55.635Z,26.60
2018-05-21T14:45:23.158Z,26.50
2018-05-21T14:47:50.674Z,26.70
2018-05-21T14:50:18.206Z,26.80
2018-05-21T14:52:45.738Z,26.70
2018-05-21T14:55:13.254Z,26.70
2018-05-21T14:57:40.785Z,26.60
2018-05-21T15:00:08.309Z,26.30
2018-05-21T15:02:35.908Z,26.30
2018-05-21T15:05:03.439Z,26.50
2018-05-21T15:07:31.821Z,26.80
2018-05-21T15:09:59.334Z,26.70
2018-05-21T15:12:26.906Z,26.80
2018-05-21T15:14:54.467Z,26.90
2018-05-21T15:17:22.044Z,27.10
2018-05-21T15:19:49.574Z,27.30
2018-05-21T15:22:17.213Z,26.80
2018-05-21T15:24:44.692Z,27.00
2018-05-21T15:27:12.235Z,27.30
2018-05-21T15:29:39.813Z,27.60
2018-05-21T15:32:07.356Z,28.20
2018-05-21T15:34:34.873Z,28.60
2018-05-21T15:37:02.404Z,28.90
2018-05-21T15:39:29.941Z,29.00
2018-05-21T15:41:57.507Z,29.80
2018-05-21T15:44:25.039Z,30.00
2018-05-21T15:46:53.344Z,29.80
2018-05-21T15:49:20.860Z,29.80
2018-05-21T15:51:48.358Z,29.30
2018-05-21T15:54:15.887Z,29.10
2018-05-21T15:56:44.309Z,27.80
2018-05-21T15:59:11.886Z,27.80
2018-05-21T16:01:39.474Z,28.00
2018-05-21T16:04:07.118Z,28.30
2018-05-21T16:06:34.674Z,28.00
2018-05-21T16:09:02.369Z,27.90
2018-05-21T16:11:29.986Z,28.00
2018-05-21T16:13:57.502Z,28.00
2018-05-21T16:16:25.048Z,27.90
2018-05-21T16:18:52.558Z,27.50
2018-05-21T16:21:20.140Z,27.20
2018-05-21T16:23:47.703Z,27.40
2018-05-21T16:26:15.226Z,27.40
2018-05-21T16:28:42.819Z,27.30
2018-05-21T16:31:10.388Z,26.90
2018-05-21T16:33:37.952Z,27.10
2018-05-21T16:36:05.474Z,27.30
2018-05-21T16:38:33.032Z,27.30
2018-05-21T16:41:00.595Z,27.30
2018-05-21T16:43:28.118Z,27.60
2018-05-21T16:45:56.533Z,28.50
2018-05-21T16:48:24.080Z,28.50
2018-05-21T16:50:51.688Z,28.30
2018-05-21T16:53:19.236Z,27.80
2018-05-21T16:55:46.784Z,27.40
2018-05-21T16:58:14.365Z,27.20
2018-05-21T17:00:41.895Z,26.80
2018-05-21T17:03:09.428Z,26.70
2018-05-21T17:05:37.019Z,26.60
2018-05-21T17:08:04.583Z,26.60
2018-05-21T17:10:32.185Z,26.60
2018-05-21T17:12:59.771Z,26.80
2018-05-21T17:15:27.289Z,26.60
2018-05-21T17:17:54.807Z,26.30
2018-05-21T17:20:22.473Z,26.20
2018-05-21T17:22:52.391Z,26.30
2018-05-21T17:25:20.020Z,26.40
2018-05-21T17:27:48.384Z,26.40
2018-05-21T17:30:15.999Z,26.40
2018-05-21T17:32:43.574Z,26.30
2018-05-21T17:35:11.108Z,26.30
2018-05-21T17:37:38.744Z,26.30
2018-05-21T17:40:07.018Z,25.60
2018-05-21T17:42:35.324Z,25.50
2018-05-21T17:45:02.863Z,25.50
2018-05-21T17:47:30.463Z,25.50
2018-05-21T17:49:57.993Z,25.10
2018-05-21T17:52:25.496Z,24.90
2018-05-21T17:54:53.039Z,24.80
2018-05-21T17:57:20.596Z,24.80
2018-05-21T17:59:48.261Z,24.80
2018-05-21T18:02:15.807Z,24.80
2018-05-21T18:04:43.360Z,24.90
2018-05-21T18:07:10.905Z,25.00
2018-05-21T18:09:39.233Z,24.90
2018-05-21T18:12:06.784Z,24.90
2018-05-21T18:14:34.357Z,24.80
2018-05-21T18:17:01.865Z,24.80
2018-05-21T18:19:29.440Z,24.80
2018-05-21T18:21:57.788Z,24.50
2018-05-21T18:24:26.129Z,24.50
2018-05-21T18:26:53.785Z,24.50
2018-05-21T18:29:21.390Z,24.50
2018-05-21T18:31:48.907Z,24.40
2018-05-21T18:34:16.549Z,24.20
2018-05-21T18:36:44.052Z,24.20
2018-05-21T18:39:12.458Z,24.10
2018-05-21T18:41:39.991Z,24.10
2018-05-21T18:44:07.504Z,24.10
2018-05-21T18:46:35.033Z,24.10
2018-05-21T18:49:02.640Z,24.00
2018-05-21T18:51:30.192Z,24.00
2018-05-21T18:53:57.807Z,23.90
2018-05-21T18:56:25.382Z,23.80
2018-05-21T18:58:52.910Z,23.70
2018-05-21T19:01:20.483Z,23.80
2018-05-21T19:03:48.812Z,23.60
2018-05-21T19:06:16.371Z,23.60
2018-05-21T19:08:43.892Z,23.60
2018-05-21T19:11:11.421Z,23.70
2018-05-21T19:13:38.939Z,23.60
2018-05-21T19:16:06.579Z,23.50
2018-05-21T19:18:34.110Z,23.40
2018-05-21T19:21:01.652Z,23.30
2018-05-21T19:23:29.149Z,23.30
2018-05-21T19:25:56.691Z,23.10
2018-05-21T19:28:24.532Z,23.10
2018-05-21T19:30:52.091Z,23.10
2018-05-21T19:33:19.656Z,23.10
2018-05-21T19:35:47.204Z,23.00
2018-05-21T19:38:14.759Z,22.90
2018-05-21T19:40:42.432Z,22.80
2018-05-21T19:43:09.982Z,22.70
2018-05-21T19:45:37.526Z,22.70
2018-05-21T19:48:05.907Z,22.60
2018-05-21T19:50:34.222Z,22.70
2018-05-21T19:53:01.805Z,22.60
2018-05-21T19:55:29.409Z,22.60
2018-05-21T19:57:57.757Z,22.50
2018-05-21T20:00:25.299Z,22.50
2018-05-21T20:02:52.831Z,22.40
2018-05-21T20:05:20.499Z,22.40
2018-05-21T20:07:48.044Z,22.40
2018-05-21T20:10:15.595Z,22.20
2018-05-21T20:12:43.880Z,22.20
2018-05-21T20:15:11.465Z,22.20
2018-05-21T20:17:39.127Z,22.10
2018-05-21T20:20:06.711Z,22.00
2018-05-21T20:22:34.305Z,22.00
2018-05-21T20:25:01.860Z,22.00
2018-05-21T20:27:30.306Z,21.90
2018-05-21T20:29:57.834Z,21.90
2018-05-21T20:32:25.382Z,22.00
2018-05-21T20:34:52.989Z,21.90
2018-05-21T20:37:20.503Z,21.90
2018-05-21T20:39:48.090Z,21.80
2018-05-21T20:42:15.632Z,21.70
2018-05-21T20:44:43.182Z,21.60
2018-05-21T20:47:10.807Z,21.50
2018-05-21T20:49:38.353Z,21.50
2018-05-21T20:52:06.029Z,21.50
2018-05-21T20:54:33.623Z,21.50
2018-05-21T20:57:01.248Z,21.50
2018-05-21T20:59:28.699Z,21.50
2018-05-21T21:01:57.017Z,21.40
2018-05-21T21:04:24.606Z,21.40
2018-05-21T21:06:52.147Z,21.20
2018-05-21T21:09:19.642Z,21.20
2018-05-21T21:11:47.210Z,21.20
2018-05-21T21:14:14.717Z,21.30
2018-05-21T21:16:43.000Z,21.20
2018-05-21T21:19:11.312Z,21.20
2018-05-21T21:21:38.839Z,21.20
2018-05-21T21:24:06.366Z,21.10
2018-05-21T21:26:33.949Z,21.10
2018-05-21T21:29:01.513Z,21.10
2018-05-21T21:31:29.817Z,21.00
2018-05-21T21:33:57.380Z,21.00
2018-05-21T21:36:25.031Z,20.90
2018-05-21T21:38:52.585Z,20.90
2018-05-21T21:41:20.120Z,20.80
2018-05-21T21:43:47.866Z,20.90
2018-05-21T21:46:15.417Z,20.80
2018-05-21T21:48:42.968Z,20.70
2018-05-21T21:51:11.249Z,20.60
2018-05-21T21:53:38.801Z,20.50
2018-05-21T21:56:06.308Z,20.60
2018-05-21T21:58:34.005Z,20.50
2018-05-21T22:01:01.566Z,20.50
2018-05-21T22:03:29.088Z,20.60
2018-05-21T22:05:56.631Z,20.70
2018-05-21T22:08:24.186Z,20.80
2018-05-21T22:10:57.676Z,20.70
2018-05-21T22:13:25.268Z,20.70
2018-05-21T22:15:52.821Z,20.70
2018-05-21T22:18:20.637Z,20.70
2018-05-21T22:20:53.558Z,20.50
2018-05-21T22:23:24.815Z,20.50
2018-05-21T22:25:53.169Z,20.40
2018-05-21T22:28:23.838Z,20.40
2018-05-21T22:30:52.143Z,20.40
2018-05-21T22:33:19.649Z,20.30
2018-05-21T22:35:47.220Z,20.40
2018-05-21T22:38:14.763Z,20.30
2018-05-21T22:40:42.297Z,20.30
2018-05-21T22:43:09.828Z,20.20
2018-05-21T22:45:37.392Z,20.20
2018-05-21T22:48:05.689Z,20.20
2018-05-21T22:50:33.219Z,20.20
2018-05-21T22:53:00.821Z,20.10
2018-05-21T22:55:28.333Z,20.10
2018-05-21T22:57:56.640Z,20.00
2018-05-21T23:00:24.176Z,20.00
2018-05-21T23:02:51.764Z,20.00
2018-05-21T23:05:19.314Z,19.80
2018-05-21T23:07:46.842Z,19.80
2018-05-21T23:10:14.368Z,19.80
2018-05-21T23:12:41.946Z,19.80
2018-05-21T23:15:10.274Z,19.80
2018-05-21T23:17:37.856Z,19.70
2018-05-21T23:20:05.422Z,19.60
2018-05-21T23:22:50.659Z,19.50
2018-05-21T23:25:18.953Z,19.40
2018-05-21T23:27:46.476Z,19.40
2018-05-21T23:30:14.006Z,19.30
2018-05-21T23:32:41.568Z,19.40
2018-05-21T23:35:09.121Z,19.30
2018-05-21T23:37:36.714Z,19.30
2018-05-21T23:40:04.240Z,19.30
2018-05-21T23:42:31.764Z,19.20
2018-05-21T23:44:59.313Z,19.40
2018-05-21T23:47:26.903Z,19.40
2018-05-21T23:49:54.542Z,19.30
2018-05-21T23:52:22.078Z,19.30
2018-05-21T23:54:49.597Z,19.30
2018-05-21T23:57:17.162Z,19.30
2018-05-21T23:59:44.681Z,19.30
